Time;durP1;ratioP1;P1;durP2;ratioP2;P2;SDS_P1;SDS_P2;PMS_P1;PMS_P2;Temp;Humidity;BMP_temperature;BMP_pressure;BME280_temperature;BME280_humidity;BME280_pressure;Samples;Min_cycle;Max_cycle;Signal;HPM_P1;HPM_P2
2022/03/07 00:01:34;;;;;;;25.00;13.10;;;;;;;-2.46;100.00;100016.71;1770707;81;21006;-76
2022/03/07 00:04:02;;;;;;;25.23;13.13;;;;;;;-2.45;100.00;100008.28;1770543;81;21088;-77
2022/03/07 00:06:30;;;;;;;26.43;13.70;;;;;;;-2.42;100.00;100003.66;1770797;80;21026;-75
2022/03/07 00:08:59;;;;;;;24.23;12.90;;;;;;;-2.41;100.00;100002.70;1770491;81;21022;-77
2022/03/07 00:11:28;;;;;;;26.23;13.30;;;;;;;-2.39;100.00;100001.30;1770372;80;21026;-74
2022/03/07 00:13:57;;;;;;;26.57;13.40;;;;;;;-2.36;100.00;100004.61;1770447;81;21002;-76
2022/03/07 00:16:25;;;;;;;26.87;14.40;;;;;;;-2.37;100.00;99996.30;1770524;81;20994;-76
2022/03/07 00:18:52;;;;;;;27.17;14.67;;;;;;;-2.35;100.00;99993.58;1749440;81;21065;-75
2022/03/07 00:21:18;;;;;;;25.03;13.57;;;;;;;-2.35;100.00;99987.80;1770874;80;21445;-76
2022/03/07 00:23:45;;;;;;;27.60;14.33;;;;;;;-2.33;100.00;99991.20;1770930;81;20991;-75
2022/03/07 00:26:11;;;;;;;26.37;14.20;;;;;;;-2.31;100.00;99986.66;1770969;80;21025;-75
2022/03/07 00:28:40;;;;;;;27.60;14.13;;;;;;;-2.31;100.00;99980.04;1770676;81;21054;-76
2022/03/07 00:31:07;;;;;;;25.17;14.60;;;;;;;-2.30;100.00;99975.62;1771031;81;20972;-76
2022/03/07 00:36:04;;;;;;;26.20;12.97;;;;;;;-2.28;100.00;99969.75;1686660;84;21042;-76
2022/03/07 00:38:32;;;;;;;26.43;13.87;;;;;;;-2.26;100.00;99970.51;1686319;85;21050;-75
2022/03/07 00:40:59;;;;;;;27.00;14.57;;;;;;;-2.24;100.00;99966.45;1706002;84;21012;-77
2022/03/07 00:43:26;;;;;;;25.50;13.37;;;;;;;-2.25;100.00;99964.25;1708782;84;21057;-76
2022/03/07 00:45:54;;;;;;;23.90;12.70;;;;;;;-2.25;100.00;99956.78;1708796;84;21039;-76
2022/03/07 00:48:20;;;;;;;24.00;11.67;;;;;;;-2.29;100.00;99958.28;1708853;84;21619;-76
2022/03/07 00:50:50;;;;;;;20.13;10.17;;;;;;;-2.30;100.00;99951.30;1708594;83;21024;-76
2022/03/07 00:53:20;;;;;;;23.23;10.77;;;;;;;-2.28;100.00;99951.22;1709051;84;21072;-77
2022/03/07 00:55:47;;;;;;;18.93;9.30;;;;;;;-2.29;100.00;99949.02;1708919;84;21024;-76
2022/03/07 00:58:14;;;;;;;18.50;9.10;;;;;;;-2.30;100.00;99947.33;1709036;84;21000;-76
2022/03/07 01:00:43;;;;;;;18.97;9.20;;;;;;;-2.29;100.00;99941.06;1706755;83;21080;-75
2022/03/07 01:03:11;;;;;;;18.87;8.77;;;;;;;-2.24;100.00;99942.61;1706808;84;21067;-76
2022/03/07 01:05:39;;;;;;;18.87;8.70;;;;;;;-2.23;100.00;99943.84;1707055;84;21032;-75
2022/03/07 01:08:08;;;;;;;18.80;8.97;;;;;;;-2.20;100.00;99941.47;1706816;84;21013;-75
2022/03/07 01:10:36;;;;;;;17.73;8.90;;;;;;;-2.19;100.00;99937.89;1706964;83;21149;-76
2022/03/07 01:13:05;;;;;;;22.50;11.10;;;;;;;-2.19;100.00;99934.77;1706917;84;21026;-76
2022/03/07 01:15:33;;;;;;;21.40;10.57;;;;;;;-2.19;100.00;99928.62;1706797;84;21553;-75
2022/03/07 01:18:00;;;;;;;24.97;11.83;;;;;;;-2.18;100.00;99925.88;1706802;84;21008;-76
2022/03/07 01:20:27;;;;;;;26.60;13.73;;;;;;;-2.19;100.00;99923.33;1706923;84;21024;-75
2022/03/07 01:22:54;;;;;;;28.07;13.53;;;;;;;-2.19;100.00;99914.05;1706948;84;20980;-76
2022/03/07 01:25:20;;;;;;;27.70;14.77;;;;;;;-2.18;100.00;99914.41;1706969;84;21060;-75
2022/03/07 01:27:48;;;;;;;29.47;14.83;;;;;;;-2.21;100.00;99910.16;1706757;84;21122;-76
2022/03/07 01:30:15;;;;;;;30.33;15.93;;;;;;;-2.21;100.00;99910.16;1706705;84;21020;-75
2022/03/07 01:32:42;;;;;;;31.17;16.57;;;;;;;-2.23;100.00;99905.44;1729464;82;21038;-75
2022/03/07 01:35:09;;;;;;;34.07;17.57;;;;;;;-2.23;100.00;99905.44;1756593;82;21074;-76
2022/03/07 01:37:35;;;;;;;38.50;19.27;;;;;;;-2.23;100.00;99899.27;1756812;82;21472;-75
2022/03/07 01:40:05;;;;;;;40.33;21.13;;;;;;;-2.24;100.00;99893.61;1771881;80;21498;-75
2022/03/07 01:42:32;;;;;;;38.77;21.90;;;;;;;-2.25;100.00;99895.86;1787727;80;21025;-76
2022/03/07 01:45:09;;;;;;;36.67;20.07;;;;;;;-2.25;100.00;99891.89;1787980;80;21018;-76
2022/03/07 01:47:37;;;;;;;35.23;18.63;;;;;;;-2.26;100.00;99891.05;1753046;82;21532;-78
2022/03/07 01:50:10;;;;;;;34.07;16.63;;;;;;;-2.27;100.00;99879.22;1753327;82;21010;-77
2022/03/07 01:52:39;;;;;;;28.77;14.73;;;;;;;-2.29;100.00;99883.28;1753353;82;21492;-76
2022/03/07 01:55:08;;;;;;;25.67;13.00;;;;;;;-2.31;100.00;99883.37;1753173;82;20978;-75
2022/03/07 01:57:40;;;;;;;22.93;11.93;;;;;;;-2.32;100.00;99882.13;1753417;82;21050;-76
2022/03/07 02:00:14;;;;;;;21.57;11.57;;;;;;;-2.34;100.00;99872.98;1753332;81;21528;-77
2022/03/07 02:02:43;;;;;;;24.03;11.73;;;;;;;-2.35;100.00;99879.21;1753118;82;21536;-75
2022/03/07 02:05:11;;;;;;;25.07;12.33;;;;;;;-2.34;100.00;99868.14;1753240;82;21030;-76
2022/03/07 02:07:41;;;;;;;22.37;11.23;;;;;;;-2.34;100.00;99869.02;1753126;82;21166;-75
2022/03/07 02:10:10;;;;;;;21.53;11.73;;;;;;;-2.35;100.00;99862.00;1753097;82;21610;-76
2022/03/07 02:12:38;;;;;;;22.17;11.40;;;;;;;-2.34;100.00;99863.71;1753535;82;21481;-76
2022/03/07 02:15:12;;;;;;;20.70;10.17;;;;;;;-2.35;100.00;99865.13;1753294;82;21014;-75
2022/03/07 02:17:46;;;;;;;20.07;10.33;;;;;;;-2.34;100.00;99859.74;1753077;82;21038;-76
2022/03/07 02:20:13;;;;;;;20.00;9.80;;;;;;;-2.32;100.00;99859.17;1753219;82;21080;-76
2022/03/07 02:22:41;;;;;;;28.87;13.60;;;;;;;-2.31;100.00;99852.91;1753263;82;21014;-76
2022/03/07 02:25:08;;;;;;;58.87;28.47;;;;;;;-2.30;100.00;99849.81;1753278;82;21026;-76
2022/03/07 02:27:36;;;;;;;39.47;20.57;;;;;;;-2.29;100.00;99847.04;1753034;82;20991;-76
2022/03/07 02:30:06;;;;;;;28.57;14.63;;;;;;;-2.28;100.00;99846.59;1753390;82;21492;-76
2022/03/07 02:32:35;;;;;;;24.47;12.50;;;;;;;-2.28;100.00;99843.94;1752909;82;21080;-75
2022/03/07 02:35:03;;;;;;;23.83;11.83;;;;;;;-2.30;100.00;99846.68;1753015;82;21066;-76
2022/03/07 02:37:33;;;;;;;23.47;11.23;;;;;;;-2.32;100.00;99840.63;1753011;82;21062;-76
2022/03/07 02:39:59;;;;;;;19.47;9.77;;;;;;;-2.33;100.00;99841.56;1754677;81;20995;-76
2022/03/07 02:42:26;;;;;;;21.07;10.70;;;;;;;-2.34;100.00;99842.53;1756233;82;20982;-74
2022/03/07 02:44:54;;;;;;;22.73;12.17;;;;;;;-2.33;100.00;99836.27;1756244;82;21010;-76
2022/03/07 02:47:22;;;;;;;24.63;12.00;;;;;;;-2.34;100.00;99833.70;1756277;82;21025;-75
2022/03/07 02:49:48;;;;;;;24.60;11.97;;;;;;;-2.35;100.00;99834.19;1758671;80;21002;-75
2022/03/07 02:52:16;;;;;;;22.33;11.00;;;;;;;-2.34;100.00;99837.23;1788084;80;21052;-75
2022/03/07 02:54:43;;;;;;;19.27;9.90;;;;;;;-2.36;100.00;99835.60;1788331;80;20997;-76
2022/03/07 02:57:10;;;;;;;20.90;9.70;;;;;;;-2.37;100.00;99838.73;1788178;80;21476;-76
2022/03/07 02:59:38;;;;;;;19.23;9.10;;;;;;;-2.36;100.00;99842.22;1786925;80;21069;-76
2022/03/07 03:02:04;;;;;;;19.10;9.33;;;;;;;-2.37;100.00;99833.92;1781387;81;20971;-76
2022/03/07 03:04:31;;;;;;;17.60;9.13;;;;;;;-2.36;100.00;99832.47;1780901;81;21041;-77
2022/03/07 03:06:59;;;;;;;17.57;8.03;;;;;;;-2.36;100.00;99833.80;1781471;81;21077;-76
2022/03/07 03:09:26;;;;;;;18.67;8.87;;;;;;;-2.38;100.00;99825.09;1781843;81;21010;-76
2022/03/07 03:11:53;;;;;;;16.87;8.53;;;;;;;-2.37;100.00;99821.52;1781057;80;20990;-75
2022/03/07 03:14:20;;;;;;;18.63;9.07;;;;;;;-2.37;100.00;99827.30;1780528;81;21006;-75
2022/03/07 03:16:46;;;;;;;15.60;8.00;;;;;;;-2.36;100.00;99827.66;1779043;81;20988;-75
2022/03/07 03:19:13;;;;;;;17.17;8.73;;;;;;;-2.36;100.00;99818.39;1778810;81;20966;-75
2022/03/07 03:21:40;;;;;;;16.97;8.67;;;;;;;-2.37;100.00;99825.48;1778811;81;21013;-77
2022/03/07 03:24:07;;;;;;;16.53;8.33;;;;;;;-2.37;100.00;99814.90;1779207;80;21072;-75
2022/03/07 03:26:35;;;;;;;15.90;8.23;;;;;;;-2.37;100.00;99817.55;1778671;81;21030;-76
2022/03/07 03:29:02;;;;;;;15.73;7.53;;;;;;;-2.36;100.00;99819.23;1778960;81;21069;-76
2022/03/07 03:31:29;;;;;;;16.00;7.80;;;;;;;-2.35;100.00;99814.81;1779055;81;20974;-75
2022/03/07 03:33:56;;;;;;;14.87;7.37;;;;;;;-2.37;100.00;99812.25;1778734;81;21010;-77
2022/03/07 03:36:23;;;;;;;15.60;7.70;;;;;;;-2.36;100.00;99813.09;1778850;79;21069;-75
2022/03/07 03:38:50;;;;;;;13.40;7.00;;;;;;;-2.36;100.00;99806.47;1778893;81;21022;-75
2022/03/07 03:41:17;;;;;;;19.57;8.63;;;;;;;-2.38;100.00;99801.27;1787420;80;21001;-76
2022/03/07 03:43:45;;;;;;;16.03;8.07;;;;;;;-2.37;100.00;99797.69;1787557;80;21061;-75
2022/03/07 03:46:11;;;;;;;16.33;7.80;;;;;;;-2.39;100.00;99797.38;1787421;80;20998;-77
2022/03/07 03:48:39;;;;;;;15.50;8.03;;;;;;;-2.38;100.00;99793.80;1787256;80;21040;-76
2022/03/07 03:51:06;;;;;;;18.77;9.47;;;;;;;-2.38;100.00;99786.70;1787406;80;21542;-75
2022/03/07 03:53:33;;;;;;;18.87;8.80;;;;;;;-2.39;100.00;99788.11;1787490;80;21057;-76
2022/03/07 03:56:00;;;;;;;20.17;9.93;;;;;;;-2.38;100.00;99777.43;1787151;80;21028;-76
2022/03/07 03:58:27;;;;;;;19.67;8.97;;;;;;;-2.37;100.00;99773.01;1787169;80;21057;-76
2022/03/07 04:00:54;;;;;;;20.20;9.43;;;;;;;-2.36;100.00;99776.86;1783136;79;21023;-76
2022/03/07 04:03:21;;;;;;;18.27;8.63;;;;;;;-2.37;100.00;99781.80;1781874;80;21687;-76
2022/03/07 04:05:48;;;;;;;16.40;8.33;;;;;;;-2.37;100.00;99776.50;1782039;80;21457;-76
2022/03/07 04:08:14;;;;;;;18.47;9.17;;;;;;;-2.37;100.00;99775.17;1782071;80;21050;-76
2022/03/07 04:10:42;;;;;;;17.77;8.80;;;;;;;-2.37;100.00;99765.91;1781906;80;21090;-75
2022/03/07 04:13:09;;;;;;;16.17;8.20;;;;;;;-2.35;100.00;99762.68;1781797;80;21027;-76
2022/03/07 04:15:38;;;;;;;16.53;7.60;;;;;;;-2.34;100.00;99767.05;1782098;80;21019;-76
2022/03/07 04:18:06;;;;;;;14.57;7.33;;;;;;;-2.36;100.00;99758.32;1782018;80;21007;-76
2022/03/07 04:20:33;;;;;;;14.00;7.43;;;;;;;-2.38;100.00;99750.95;1781925;80;21003;-74
2022/03/07 04:23:01;;;;;;;14.93;7.70;;;;;;;-2.34;100.00;99764.85;1782015;80;21008;-76
2022/03/07 04:25:28;;;;;;;13.43;7.07;;;;;;;-2.35;100.00;99753.41;1782097;80;21067;-76
2022/03/07 04:27:57;;;;;;;14.53;7.23;;;;;;;-2.34;100.00;99757.78;1781831;80;21015;-76
2022/03/07 04:30:24;;;;;;;12.13;6.40;;;;;;;-2.35;100.00;99753.41;1781960;80;21047;-76
2022/03/07 04:32:51;;;;;;;13.40;7.20;;;;;;;-2.36;100.00;99745.08;1781671;80;21509;-76
2022/03/07 04:35:18;;;;;;;13.43;7.17;;;;;;;-2.32;100.00;99745.73;1782023;80;21004;-77
2022/03/07 04:37:44;;;;;;;13.17;7.03;;;;;;;-2.32;100.00;99739.11;1782279;80;21019;-76
2022/03/07 04:40:16;;;;;;;18.23;9.17;;;;;;;-2.31;100.00;99737.70;1775649;80;21069;-77
2022/03/07 04:42:44;;;;;;;14.73;7.93;;;;;;;-2.31;100.00;99732.88;1770920;81;21093;-76
2022/03/07 04:45:12;;;;;;;14.70;7.43;;;;;;;-2.29;100.00;99737.61;1770893;81;21001;-77
2022/03/07 04:47:39;;;;;;;15.53;7.60;;;;;;;-2.27;100.00;99732.22;1770929;81;21524;-76
2022/03/07 04:50:08;;;;;;;12.27;6.87;;;;;;;-2.29;100.00;99721.23;1770807;80;21003;-76
2022/03/07 04:52:35;;;;;;;16.50;7.23;;;;;;;-2.29;100.00;99714.61;1770689;81;21559;-76
2022/03/07 04:55:03;;;;;;;15.20;7.17;;;;;;;-2.26;100.00;99709.61;1770703;81;21021;-75
2022/03/07 04:57:30;;;;;;;12.77;6.83;;;;;;;-2.24;100.00;99710.84;1770763;81;20998;-76
2022/03/07 04:59:56;;;;;;;12.43;6.60;;;;;;;-2.24;100.00;99705.55;1776501;80;21005;-76
2022/03/07 05:02:23;;;;;;;14.30;6.97;;;;;;;-2.26;100.00;99704.31;1795768;80;21032;-75
2022/03/07 05:04:50;;;;;;;12.33;6.50;;;;;;;-2.25;100.00;99705.16;1795712;80;21028;-76
2022/03/07 05:07:17;;;;;;;12.67;7.23;;;;;;;-2.23;100.00;99700.16;1795890;80;21025;-76
2022/03/07 05:09:45;;;;;;;13.83;7.63;;;;;;;-2.24;100.00;99698.44;1795859;79;21041;-76
2022/03/07 05:12:12;;;;;;;14.50;7.57;;;;;;;-2.23;100.00;99697.95;1795974;80;21573;-75
2022/03/07 05:14:39;;;;;;;17.50;8.20;;;;;;;-2.22;100.00;99697.02;1795819;80;21467;-76
2022/03/07 05:17:07;;;;;;;16.03;8.63;;;;;;;-2.22;100.00;99694.38;1795970;79;21055;-78
2022/03/07 05:19:33;;;;;;;17.23;8.67;;;;;;;-2.21;100.00;99696.05;1796695;80;20985;-77
2022/03/07 05:22:02;;;;;;;15.27;7.53;;;;;;;-2.21;100.00;99682.36;1796406;80;21005;-77
2022/03/07 05:24:30;;;;;;;15.67;7.60;;;;;;;-2.17;100.00;99686.98;1796320;80;21048;-77
2022/03/07 05:26:56;;;;;;;14.60;7.43;;;;;;;-2.19;100.00;99679.13;1796817;80;21005;-77
2022/03/07 05:29:23;;;;;;;15.60;7.90;;;;;;;-2.19;100.00;99679.13;1796298;79;21063;-76
2022/03/07 05:31:50;;;;;;;15.40;7.40;;;;;;;-2.15;100.00;99678.45;1796439;79;21009;-77
2022/03/07 05:34:17;;;;;;;15.23;7.10;;;;;;;-2.11;100.00;99674.20;1796711;80;21455;-76
2022/03/07 05:36:44;;;;;;;18.50;8.77;;;;;;;-2.07;100.00;99670.88;1796609;80;21052;-77
2022/03/07 05:39:10;;;;;;;14.63;7.37;;;;;;;-2.07;100.00;99667.36;1796820;80;21033;-77
2022/03/07 05:41:37;;;;;;;17.60;8.80;;;;;;;-2.05;100.00;99665.45;1796715;80;21483;-77
2022/03/07 05:44:04;;;;;;;14.67;7.17;;;;;;;-2.06;100.00;99659.31;1796734;80;21052;-77
2022/03/07 05:46:33;;;;;;;17.10;8.00;;;;;;;-2.02;100.00;99656.86;1796526;80;21111;-77
2022/03/07 05:48:59;;;;;;;15.87;7.40;;;;;;;-1.96;100.00;99655.59;1796447;80;21044;-77
2022/03/07 05:51:26;;;;;;;14.07;7.60;;;;;;;-1.89;100.00;99664.84;1796491;78;21012;-76
2022/03/07 05:53:53;;;;;;;14.77;7.20;;;;;;;-1.86;100.00;99663.78;1796575;78;21025;-76
2022/03/07 05:56:19;;;;;;;16.53;7.70;;;;;;;-1.84;100.00;99669.37;1795847;80;21478;-77
2022/03/07 05:58:46;;;;;;;16.03;7.77;;;;;;;-1.81;100.00;99668.30;1796218;80;21056;-76
2022/03/07 06:01:14;;;;;;;17.50;8.47;;;;;;;-1.79;100.00;99663.30;1779170;80;21014;-76
2022/03/07 06:03:42;;;;;;;16.37;7.93;;;;;;;-1.78;100.00;99662.32;1771379;80;21057;-77
2022/03/07 06:06:09;;;;;;;15.40;8.23;;;;;;;-1.76;100.00;99664.39;1771172;81;21496;-76
2022/03/07 06:08:36;;;;;;;16.27;7.60;;;;;;;-1.77;100.00;99665.36;1771312;81;21482;-76
2022/03/07 06:11:03;;;;;;;17.40;8.10;;;;;;;-1.74;100.00;99667.78;1771352;81;21010;-77
2022/03/07 06:13:30;;;;;;;18.03;9.17;;;;;;;-1.69;100.00;99664.00;1771067;81;20982;-77
2022/03/07 06:15:57;;;;;;;18.10;8.60;;;;;;;-1.66;100.00;99661.99;1771236;81;20990;-77
2022/03/07 06:18:25;;;;;;;15.73;7.93;;;;;;;-1.62;100.00;99659.98;1770778;81;21057;-78
2022/03/07 06:20:53;;;;;;;14.90;7.83;;;;;;;-1.57;100.00;99663.18;1771324;81;21474;-77
2022/03/07 06:23:20;;;;;;;15.10;7.60;;;;;;;-1.58;100.00;99663.63;1770991;81;20970;-75
2022/03/07 06:25:46;;;;;;;13.93;6.97;;;;;;;-1.58;100.00;99667.61;1773768;80;20975;-76
2022/03/07 06:28:14;;;;;;;15.10;7.63;;;;;;;-1.54;100.00;99659.84;1781819;80;21516;-75
2022/03/07 06:30:41;;;;;;;14.13;6.97;;;;;;;-1.50;100.00;99668.44;1781712;79;21069;-76
2022/03/07 06:33:08;;;;;;;14.37;7.00;;;;;;;-1.46;100.00;99667.27;1781723;80;20996;-75
2022/03/07 06:35:35;;;;;;;14.47;7.50;;;;;;;-1.44;100.00;99662.70;1781902;80;21026;-75
2022/03/07 06:38:02;;;;;;;12.37;6.87;;;;;;;-1.42;100.00;99666.10;1777574;79;21048;-75
2022/03/07 06:40:31;;;;;;;17.20;8.13;;;;;;;-1.41;100.00;99666.97;1781463;80;20995;-75
2022/03/07 06:43:00;;;;;;;14.47;7.40;;;;;;;-1.38;100.00;99664.96;1781457;80;21130;-74
2022/03/07 06:45:27;;;;;;;16.47;8.30;;;;;;;-1.30;100.00;99668.89;1781828;80;20967;-75
2022/03/07 06:47:54;;;;;;;13.53;7.30;;;;;;;-1.22;100.00;99663.89;1781792;80;21012;-76
2022/03/07 06:50:21;;;;;;;15.03;7.20;;;;;;;-1.18;100.00;99665.41;1781733;80;22351;-73
2022/03/07 06:52:48;;;;;;;13.40;7.47;;;;;;;-1.15;100.00;99670.51;1777643;80;20987;-75
2022/03/07 06:55:15;;;;;;;13.60;6.80;;;;;;;-1.20;100.00;99664.18;1781774;80;21432;-74
2022/03/07 06:57:42;;;;;;;12.83;6.73;;;;;;;-1.25;100.00;99664.97;1781697;80;21052;-77
2022/03/07 07:00:13;;;;;;;15.33;6.90;;;;;;;-1.25;100.00;99667.63;1781744;79;21032;-75
2022/03/07 07:02:42;;;;;;;13.15;6.58;;;;;;;-1.27;100.00;99668.20;1690585;83;21048;-74
2022/03/07 07:05:09;;;;;;;15.20;7.23;;;;;;;-1.29;100.00;99674.10;1689461;85;21582;-73
2022/03/07 07:07:36;;;;;;;14.87;7.40;;;;;;;-1.34;100.00;99666.44;1691157;85;21464;-75
2022/03/07 07:10:06;;;;;;;13.80;7.37;;;;;;;-1.35;100.00;99666.09;1691024;84;21013;-75
2022/03/07 07:12:36;;;;;;;15.07;7.70;;;;;;;-1.35;100.00;99659.45;1690801;85;21031;-75
2022/03/07 07:15:06;;;;;;;15.50;7.57;;;;;;;-1.36;100.00;99659.07;1685884;85;21013;-75
2022/03/07 07:17:34;;;;;;;15.67;8.30;;;;;;;-1.40;100.00;99659.38;1690900;85;21469;-75
2022/03/07 07:20:02;;;;;;;16.97;8.00;;;;;;;-1.39;100.00;99653.13;1688783;83;21182;-76
2022/03/07 07:22:29;;;;;;;15.77;7.90;;;;;;;-1.40;100.00;99659.38;1690953;83;21121;-74
2022/03/07 07:24:56;;;;;;;15.07;7.80;;;;;;;-1.42;100.00;99652.84;1690501;85;21568;-75
2022/03/07 07:27:23;;;;;;;19.30;9.53;;;;;;;-1.37;100.00;99647.23;1690697;85;21008;-74
2022/03/07 07:29:50;;;;;;;15.57;8.07;;;;;;;-1.38;100.00;99643.74;1687508;85;21065;-67
2022/03/07 07:32:17;;;;;;;16.40;8.60;;;;;;;-1.30;100.00;99637.06;1689885;85;21034;-67
2022/03/07 07:34:44;;;;;;;16.17;8.50;;;;;;;-1.27;100.00;99627.09;1689764;85;21028;-66
2022/03/07 07:37:11;;;;;;;15.77;8.47;;;;;;;-1.24;100.00;99624.23;1690103;85;21040;-67
2022/03/07 07:39:37;;;;;;;16.87;7.93;;;;;;;-1.31;100.00;99626.94;1690384;85;21018;-66
2022/03/07 07:42:05;;;;;;;21.00;9.63;;;;;;;-1.38;100.00;99620.33;1690031;85;21033;-67
2022/03/07 07:44:33;;;;;;;16.90;8.53;;;;;;;-1.42;100.00;99613.06;1685560;83;20981;-67
2022/03/07 07:47:01;;;;;;;18.53;8.80;;;;;;;-1.40;100.00;99607.20;1689539;85;21530;-67
2022/03/07 07:49:31;;;;;;;20.27;9.40;;;;;;;-1.37;100.00;99602.14;1690621;85;21113;-67
2022/03/07 07:51:57;;;;;;;25.70;11.30;;;;;;;-1.35;100.00;99590.49;1692073;85;21042;-66
2022/03/07 07:54:24;;;;;;;25.80;11.50;;;;;;;-1.27;100.00;99589.95;1692660;85;21016;-66
2022/03/07 07:56:51;;;;;;;20.77;8.97;;;;;;;-1.17;100.00;99585.70;1689658;84;21068;-67
2022/03/07 07:59:18;;;;;;;18.97;8.33;;;;;;;-1.13;100.00;99585.47;1691309;85;21429;-68
2022/03/07 08:01:45;;;;;;;20.70;8.30;;;;;;;-1.11;100.00;99582.25;1689993;83;20985;-69
2022/03/07 08:04:12;;;;;;;25.47;8.87;;;;;;;-1.08;100.00;99586.86;1690144;85;21059;-67
2022/03/07 08:06:40;;;;;;;29.93;10.20;;;;;;;-1.05;100.00;99579.99;1764827;80;21018;-69
2022/03/07 08:09:07;;;;;;;20.07;8.60;;;;;;;-1.00;100.00;99577.86;1779806;80;21011;-68
2022/03/07 08:11:35;;;;;;;21.20;8.87;;;;;;;-0.92;100.00;99575.14;1773708;79;21013;-68
2022/03/07 08:14:01;;;;;;;30.90;10.37;;;;;;;-0.98;100.00;99579.09;1781516;80;20984;-67
2022/03/07 08:16:28;;;;;;;26.00;11.30;;;;;;;-0.99;100.00;99571.61;1781206;80;21076;-68
2022/03/07 08:18:55;;;;;;;24.10;12.30;;;;;;;-1.03;100.00;99571.44;1781426;80;20964;-67
2022/03/07 08:21:25;;;;;;;21.90;10.77;;;;;;;-1.01;100.00;99556.28;1781342;80;21016;-69
2022/03/07 08:23:53;;;;;;;17.43;9.50;;;;;;;-0.97;100.00;99551.11;1781633;80;20984;-66
2022/03/07 08:26:21;;;;;;;18.57;8.53;;;;;;;-0.93;100.00;99551.74;1781522;80;20939;-67
2022/03/07 08:28:48;;;;;;;16.33;8.20;;;;;;;-0.97;100.00;99547.62;1781348;80;20912;-67
2022/03/07 08:31:17;;;;;;;23.50;10.13;;;;;;;-1.00;100.00;99546.50;1781594;80;21017;-66
2022/03/07 08:33:44;;;;;;;18.33;8.50;;;;;;;-1.02;100.00;99541.30;1781441;80;21437;-67
2022/03/07 08:36:11;;;;;;;18.47;8.90;;;;;;;-1.02;100.00;99537.32;1781312;80;21005;-66
2022/03/07 08:38:38;;;;;;;23.80;10.43;;;;;;;-1.01;100.00;99537.70;1781727;80;20993;-67
2022/03/07 08:41:04;;;;;;;21.93;9.33;;;;;;;-1.01;100.00;99542.14;1781752;79;21003;-67
2022/03/07 08:43:31;;;;;;;23.67;9.10;;;;;;;-1.07;100.00;99546.58;1781196;80;21026;-67
2022/03/07 08:45:57;;;;;;;21.77;12.50;;;;;;;-1.35;100.00;99547.19;1781242;80;20985;-67
2022/03/07 08:48:24;;;;;;;23.07;14.40;;;;;;;-1.59;100.00;99543.13;1779931;80;21036;-67
2022/03/07 08:50:53;;;;;;;20.33;9.70;;;;;;;-1.70;100.00;99535.88;1780204;80;21526;-68
2022/03/07 08:53:20;;;;;;;16.20;7.50;;;;;;;-1.69;100.00;99531.45;1779993;80;21548;-67
2022/03/07 08:55:47;;;;;;;17.50;8.00;;;;;;;-1.74;100.00;99530.42;1779902;80;21021;-73
2022/03/07 08:58:13;;;;;;;16.60;7.63;;;;;;;-1.82;100.00;99526.98;1739447;82;21065;-75
2022/03/07 09:00:40;;;;;;;18.97;8.67;;;;;;;-1.84;100.00;99516.10;1739933;82;21500;-76
2022/03/07 09:03:07;;;;;;;14.87;7.10;;;;;;;-1.78;100.00;99509.91;1745002;82;21012;-75
2022/03/07 09:05:35;;;;;;;18.97;7.47;;;;;;;-1.71;100.00;99501.06;1744975;82;21035;-66
2022/03/07 09:08:03;;;;;;;18.57;8.07;;;;;;;-1.70;100.00;99492.14;1745302;81;20998;-68
2022/03/07 09:10:31;;;;;;;19.23;8.30;;;;;;;-1.63;100.00;99493.90;1745466;82;21030;-67
2022/03/07 09:12:58;;;;;;;16.70;6.80;;;;;;;-1.54;100.00;99487.94;1744388;81;21051;-66
2022/03/07 09:15:25;;;;;;;12.93;6.63;;;;;;;-1.44;100.00;99486.34;1744089;82;21027;-66
2022/03/07 09:17:52;;;;;;;14.40;6.63;;;;;;;-1.36;100.00;99483.17;1744040;82;21050;-66
2022/03/07 09:20:19;;;;;;;14.30;6.47;;;;;;;-1.27;100.00;99482.52;1744059;82;21031;-67
2022/03/07 09:22:46;;;;;;;13.00;6.10;;;;;;;-1.22;100.00;99481.71;1744283;82;21050;-67
2022/03/07 09:25:13;;;;;;;13.50;6.43;;;;;;;-1.21;100.00;99483.39;1743897;82;21086;-67
2022/03/07 09:27:42;;;;;;;14.50;5.97;;;;;;;-1.18;100.00;99478.36;1744100;82;21027;-67
2022/03/07 09:30:10;;;;;;;11.87;6.60;;;;;;;-1.09;100.00;99477.69;1744307;82;21520;-66
2022/03/07 09:32:37;;;;;;;12.17;6.37;;;;;;;-0.98;100.00;99475.58;1744326;82;21006;-67
2022/03/07 09:35:05;;;;;;;15.83;7.00;;;;;;;-0.87;100.00;99468.16;1744725;82;20991;-68
2022/03/07 09:37:31;;;;;;;14.47;7.43;;;;;;;-0.79;100.00;99466.64;1750032;82;21483;-67
2022/03/07 09:39:59;;;;;;;13.13;7.07;;;;;;;-0.84;100.00;99475.42;1744151;82;21065;-74
2022/03/07 09:42:26;;;;;;;9.37;5.47;;;;;;;-0.83;100.00;99473.64;1737208;83;21026;-75
2022/03/07 09:44:54;;;;;;;8.80;4.53;;;;;;;-0.55;100.00;99460.47;1737221;83;21543;-74
2022/03/07 09:47:22;;;;;;;11.17;5.00;;;;;;;-0.22;100.00;99462.40;1737486;83;21018;-74
2022/03/07 09:49:52;;;;;;;9.07;4.87;;;;;;;-0.02;100.00;99464.89;1737374;83;21054;-75
2022/03/07 09:52:19;;;;;;;8.67;4.83;;;;;;;0.11;100.00;99478.08;1737279;83;21046;-77
2022/03/07 09:54:45;;;;;;;6.33;4.40;;;;;;;0.22;100.00;99490.54;1737339;83;21013;-76
2022/03/07 09:57:14;;;;;;;6.40;4.20;;;;;;;0.21;100.00;99505.28;1737107;82;21488;-75
2022/03/07 09:59:41;;;;;;;7.53;4.40;;;;;;;0.37;100.00;99507.11;1743397;82;20972;-68
2022/03/07 10:02:14;;;;;;;8.27;4.70;;;;;;;0.71;100.00;99510.66;1744123;82;21046;-68
2022/03/07 10:04:43;;;;;;;5.85;4.08;;;;;;;0.95;100.00;99521.64;1743921;82;21133;-70
2022/03/07 10:07:11;;;;;;;6.57;4.20;;;;;;;1.17;100.00;99526.58;1744344;82;21468;-70
2022/03/07 10:09:41;;;;;;;7.57;5.00;;;;;;;1.41;100.00;99533.91;1744823;82;21034;-76
2022/03/07 10:12:09;;;;;;;7.97;4.97;;;;;;;1.58;100.00;99553.87;1744205;82;21046;-76
2022/03/07 10:14:47;;;;;;;7.23;4.63;;;;;;;1.54;100.00;99572.88;1747518;82;20980;-76
2022/03/07 10:17:26;;;;;;;6.77;4.47;;;;;;;1.59;100.00;99594.19;1692475;85;21003;-77
2022/03/07 10:19:55;;;;;;;19.10;10.77;;;;;;;1.53;100.00;99597.86;1691278;81;21092;-73
2022/03/07 10:22:24;;;;;;;20.83;12.03;;;;;;;1.47;100.00;99612.49;1693992;85;21081;-75
2022/03/07 10:27:41;;;;;;;35.07;24.57;;;;;;;1.46;100.00;99621.48;1650621;87;21819;-79
2022/03/07 10:30:15;;;;;;;22.23;12.57;;;;;;;1.46;100.00;99620.14;1552482;92;21042;-74
2022/03/07 10:32:43;;;;;;;8.27;5.13;;;;;;;1.47;100.00;99628.48;1552067;92;21230;-75
2022/03/07 10:35:25;;;;;;;12.27;7.80;;;;;;;1.52;100.00;99627.63;1546200;93;21091;-75
2022/03/07 10:37:57;;;;;;;7.87;5.10;;;;;;;1.59;100.00;99624.00;1545014;93;21174;-75
2022/03/07 10:40:23;;;;;;;7.97;4.80;;;;;;;1.51;100.00;99635.28;1509249;95;21063;-77
2022/03/07 10:42:53;;;;;;;7.50;4.47;;;;;;;1.46;100.00;99632.97;1509273;95;21636;-77
2022/03/07 10:45:20;;;;;;;8.93;5.33;;;;;;;1.43;100.00;99633.21;1510075;95;21067;-77
2022/03/07 10:47:56;;;;;;;9.43;5.63;;;;;;;1.29;100.00;99629.47;1509569;95;21079;-77
2022/03/07 10:50:26;;;;;;;7.73;4.70;;;;;;;1.22;100.00;99632.26;1473585;97;21054;-77
2022/03/07 10:52:59;;;;;;;9.17;5.30;;;;;;;1.16;100.00;99628.27;1474811;97;21050;-75
2022/03/07 10:55:27;;;;;;;;;;;;;;;1.13;100.00;99621.84;1475879;97;21082;-76
2022/03/07 10:58:12;;;;;;;11.30;5.27;;;;;;;1.05;100.00;99609.64;1501470;96;20173;-76
2022/03/07 11:01:00;;;;;;;8.57;4.97;;;;;;;1.00;100.00;99614.47;1501099;96;21136;-76
2022/03/07 11:03:33;;;;;;;8.27;5.17;;;;;;;0.90;100.00;99617.86;1499699;96;21083;-74
2022/03/07 11:06:02;;;;;;;9.13;5.60;;;;;;;0.87;100.00;99611.94;1501356;94;21211;-77
2022/03/07 11:08:28;;;;;;;13.10;6.07;;;;;;;0.89;100.00;99609.50;1501591;94;21151;-76
2022/03/07 11:10:59;;;;;;;28.80;8.83;;;;;;;0.95;100.00;99601.02;1501169;96;21126;-74
2022/03/07 11:13:29;;;;;;;13.23;5.40;;;;;;;1.01;100.00;99601.51;1500968;94;21046;-75
2022/03/07 11:16:02;;;;;;;8.17;4.73;;;;;;;1.03;100.00;99604.43;1508333;95;21725;-77
2022/03/07 11:18:31;;;;;;;11.17;5.77;;;;;;;0.93;100.00;99605.63;1511120;95;21097;-76
2022/03/07 11:21:00;;;;;;;9.50;5.30;;;;;;;0.90;100.00;99602.35;1489080;96;21206;-76
2022/03/07 11:23:28;;;;;;;7.77;4.90;;;;;;;0.97;100.00;99588.92;1511444;94;21081;-75
2022/03/07 11:25:58;;;;;;;10.07;5.70;;;;;;;1.00;100.00;99593.17;1460729;95;21134;-77